Time;durP1;ratioP1;P1;durP2;ratioP2;P2;SDS_P1;SDS_P2;PMS_P1;PMS_P2;Temp;Humidity;BMP_temperature;BMP_pressure;BME280_temperature;BME280_humidity;BME280_pressure;Samples;Min_cycle;Max_cycle;Signal;HPM_P1;HPM_P2
2021/09/30 00:00:40;;;;;;;9.43;1.77;;;;;;;21.59;40.92;101653.91;4918399;29;20214;-79
2021/09/30 00:03:06;;;;;;;6.07;1.75;;;;;;;21.57;40.78;101653.50;4918646;29;20028;-78
2021/09/30 00:05:32;;;;;;;8.80;1.88;;;;;;;21.44;41.24;101640.88;4918436;29;20028;-77
2021/09/30 00:07:57;;;;;;;5.78;1.33;;;;;;;21.54;41.15;101633.97;4918552;29;20032;-78
2021/09/30 00:10:24;;;;;;;11.20;1.70;;;;;;;21.55;41.17;101630.00;4918389;29;20534;-78
2021/09/30 00:13:02;;;;;;;6.03;1.30;;;;;;;21.60;41.34;101626.91;4901390;29;20506;-78
2021/09/30 00:34:41;;;;;;;8.82;2.42;;;;;;;21.63;42.19;101547.53;4917977;29;20071;-78
2021/09/30 00:50:11;;;;;;;8.10;1.58;;;;;;;21.78;42.35;101508.47;4917991;29;20115;-78
2021/09/30 00:52:49;;;;;;;10.23;2.42;;;;;;;21.76;42.70;101496.09;4917742;29;20456;-78
2021/09/30 02:18:15;;;;;;;7.20;1.70;;;;;;;21.86;44.54;101318.25;4897682;29;20091;-78
2021/09/30 02:30:52;;;;;;;3.30;1.45;;;;;;;22.25;45.03;101220.56;4897717;29;20532;-78
2021/09/30 03:01:14;;;;;;;2.38;0.77;;;;;;;22.12;45.89;101113.47;4860814;29;20049;-78
2021/09/30 03:03:41;;;;;;;4.35;1.10;;;;;;;22.32;45.38;101105.72;4896259;29;20055;-78
2021/09/30 03:06:07;;;;;;;1.80;0.65;;;;;;;22.28;45.37;101102.09;4900653;29;20037;-78
2021/09/30 03:08:43;;;;;;;3.72;0.93;;;;;;;22.34;45.17;101083.88;4900477;29;20388;-78
2021/09/30 03:11:09;;;;;;;2.58;0.70;;;;;;;22.40;45.26;101073.97;4900755;29;20029;-78
2021/09/30 03:13:37;;;;;;;3.55;1.50;;;;;;;22.36;45.22;101073.13;4899680;29;20119;-78
2021/09/30 03:16:48;;;;;;;2.28;0.70;;;;;;;22.28;45.87;101060.34;4900158;29;20036;-78
2021/09/30 03:18:58;;;;;;;1.08;0.50;;;;;;;22.22;46.08;101045.19;4894781;29;20052;-78
2021/09/30 03:24:11;;;;;;;2.63;0.57;;;;;;;22.47;45.81;101045.41;4900594;29;20043;-78
2021/09/30 03:26:38;;;;;;;0.82;0.40;;;;;;;22.53;45.57;101030.72;4900377;29;20051;-78
2021/09/30 03:29:04;;;;;;;0.88;0.40;;;;;;;22.04;47.55;101022.75;4900306;29;20028;-78
2021/09/30 03:31:32;;;;;;;3.75;0.60;;;;;;;22.50;46.50;101014.78;4900181;29;20480;-78
2021/09/30 03:33:59;;;;;;;2.92;0.82;;;;;;;22.76;46.05;101001.81;4900296;29;20106;-78
2021/09/30 03:36:25;;;;;;;1.25;0.63;;;;;;;22.70;46.14;100993.81;4900066;29;20502;-78
2021/09/30 03:38:51;;;;;;;1.80;0.50;;;;;;;22.62;46.35;100986.63;4900068;29;20025;-78
2021/09/30 03:41:17;;;;;;;1.58;0.60;;;;;;;22.75;46.36;100989.88;4900112;29;20111;-78
2021/09/30 03:43:43;;;;;;;2.30;0.68;;;;;;;22.85;46.03;100982.75;4900098;29;20036;-78
2021/09/30 03:46:08;;;;;;;4.00;0.50;;;;;;;23.02;46.12;100984.84;4900022;29;20033;-78
2021/09/30 03:48:35;;;;;;;1.73;0.63;;;;;;;22.67;47.00;100961.19;4899904;29;20373;-78
2021/09/30 03:51:18;;;;;;;2.30;0.60;;;;;;;22.84;46.65;100956.88;4899945;29;20115;-78
2021/09/30 04:01:26;;;;;;;1.88;0.77;;;;;;;23.12;46.22;100931.13;4899610;29;20134;-78
2021/09/30 04:03:52;;;;;;;1.90;0.75;;;;;;;23.03;46.39;100921.53;4899544;29;20037;-78
2021/09/30 04:06:18;;;;;;;4.28;0.95;;;;;;;22.97;46.67;100923.91;4899715;29;20032;-79
2021/09/30 04:08:44;;;;;;;2.72;0.80;;;;;;;23.11;46.40;100917.59;4899540;29;20058;-78
2021/09/30 04:11:10;;;;;;;4.72;0.98;;;;;;;23.18;46.52;100921.19;4899511;29;20480;-79
2021/09/30 04:13:36;;;;;;;3.88;0.80;;;;;;;23.10;46.94;100899.28;4899413;29;20024;-78
2021/09/30 04:16:03;;;;;;;2.85;0.93;;;;;;;23.16;46.72;100898.50;4899187;29;20111;-79
2021/09/30 04:18:29;;;;;;;2.28;0.70;;;;;;;23.14;46.71;100900.09;4899437;29;20088;-78
2021/09/30 04:20:55;;;;;;;3.05;1.20;;;;;;;23.18;46.67;100893.31;4899427;29;20103;-77
2021/09/30 04:23:21;;;;;;;4.63;1.33;;;;;;;23.14;46.80;100894.53;4899293;29;20112;-78
2021/09/30 04:25:46;;;;;;;3.15;1.10;;;;;;;23.26;46.71;100896.91;4899216;29;20458;-78
2021/09/30 04:28:14;;;;;;;2.25;0.90;;;;;;;23.45;45.90;100892.97;4899175;29;20025;-78
2021/09/30 04:30:40;;;;;;;3.75;1.75;;;;;;;23.30;46.46;100899.72;4899161;29;20198;-78
2021/09/30 04:33:06;;;;;;;2.88;1.10;;;;;;;23.51;45.99;100880.22;4899151;29;20036;-79
2021/09/30 04:35:31;;;;;;;4.57;0.88;;;;;;;23.52;45.82;100881.81;4898919;29;20555;-78
2021/09/30 04:37:57;;;;;;;3.63;1.00;;;;;;;23.26;46.67;100877.41;4899048;29;20147;-78
2021/09/30 04:40:23;;;;;;;3.10;0.95;;;;;;;23.34;46.73;100878.22;4899058;29;20033;-78
2021/09/30 04:42:49;;;;;;;1.52;0.73;;;;;;;23.32;47.07;100877.81;4898844;29;20032;-78
2021/09/30 04:45:14;;;;;;;4.20;1.15;;;;;;;23.35;46.74;100871.44;4898899;29;20032;-78
2021/09/30 04:47:40;;;;;;;3.55;1.00;;;;;;;23.28;47.33;100858.31;4898961;29;20025;-78
2021/09/30 04:50:06;;;;;;;2.83;1.00;;;;;;;23.45;46.79;100854.72;4898805;29;20341;-79
2021/09/30 04:52:32;;;;;;;2.42;0.70;;;;;;;23.46;46.67;100855.53;4898652;29;20032;-79
2021/09/30 04:54:57;;;;;;;3.30;0.73;;;;;;;23.38;46.80;100859.50;4898815;29;20046;-78
2021/09/30 04:57:23;;;;;;;2.30;0.80;;;;;;;23.51;46.51;100847.56;4881765;29;20052;-78
2021/09/30 04:59:48;;;;;;;2.33;1.08;;;;;;;23.53;46.86;100852.75;4881690;29;20031;-78
2021/09/30 05:02:14;;;;;;;3.55;0.90;;;;;;;23.63;46.84;100849.16;4898330;29;20397;-78
2021/09/30 05:04:39;;;;;;;2.60;1.52;;;;;;;23.53;47.12;100839.59;4881663;29;20480;-78
2021/09/30 05:07:05;;;;;;;2.55;1.33;;;;;;;23.62;47.21;100847.56;4898526;29;20664;-78
2021/09/30 05:09:33;;;;;;;3.60;1.00;;;;;;;23.76;46.57;100835.63;4898446;29;20040;-78
2021/09/30 05:12:01;;;;;;;1.85;0.93;;;;;;;23.83;46.41;100826.44;4898641;29;20396;-78
2021/09/30 05:14:27;;;;;;;1.35;0.60;;;;;;;23.82;46.74;100838.81;4897853;29;20028;-78
2021/09/30 05:16:53;;;;;;;1.48;0.77;;;;;;;23.82;46.77;100827.66;4898150;29;20032;-78
2021/09/30 05:19:19;;;;;;;2.63;1.15;;;;;;;23.67;47.23;100836.03;4898224;29;20543;-79
2021/09/30 05:21:45;;;;;;;4.63;1.15;;;;;;;23.82;46.68;100822.06;4898260;29;20029;-78
2021/09/30 05:24:11;;;;;;;3.47;0.70;;;;;;;23.82;46.89;100810.91;4898171;29;20057;-79
2021/09/30 05:26:37;;;;;;;1.92;0.77;;;;;;;23.96;46.64;100811.66;4898229;29;20416;-77
2021/09/30 05:29:03;;;;;;;2.58;0.65;;;;;;;23.79;47.26;100802.13;4898123;29;20040;-78
2021/09/30 05:31:30;;;;;;;3.28;0.95;;;;;;;23.90;46.59;100799.31;4898225;29;20112;-78
2021/09/30 05:33:56;;;;;;;2.85;0.70;;;;;;;23.93;46.75;100794.91;4897947;29;20105;-78
2021/09/30 05:36:22;;;;;;;2.17;0.70;;;;;;;23.97;46.84;100804.88;4897927;29;20103;-78
2021/09/30 05:38:49;;;;;;;3.83;1.55;;;;;;;23.92;46.91;100804.50;4897956;29;20064;-78
2021/09/30 05:41:15;;;;;;;2.25;0.70;;;;;;;23.99;46.84;100782.94;4897983;29;20020;-78
2021/09/30 05:43:46;;;;;;;1.30;0.70;;;;;;;24.08;46.53;100797.25;4897921;29;20461;-78
2021/09/30 05:46:14;;;;;;;3.35;0.50;;;;;;;23.68;47.89;100784.63;4897834;29;20044;-79
2021/09/30 05:48:40;;;;;;;3.80;1.13;;;;;;;23.93;47.18;100795.72;4897937;29;20112;-78
2021/09/30 05:51:06;;;;;;;2.05;0.57;;;;;;;23.91;47.17;100791.75;4897783;29;20455;-77
2021/09/30 05:53:31;;;;;;;1.40;0.50;;;;;;;23.95;47.48;100784.13;4880992;29;20526;-77
2021/09/30 05:55:57;;;;;;;3.25;0.85;;;;;;;24.09;46.84;100789.69;4880741;29;20399;-77
2021/09/30 05:58:23;;;;;;;3.00;0.73;;;;;;;23.99;47.37;100793.31;4880780;29;20111;-77
2021/09/30 06:11:46;;;;;;;3.75;0.88;;;;;;;24.23;47.28;100780.47;4897816;29;20028;-76
2021/09/30 06:14:19;;;;;;;3.25;0.70;;;;;;;24.21;47.47;100778.09;4880701;29;20064;-76
2021/09/30 06:16:45;;;;;;;1.80;0.80;;;;;;;24.38;46.78;100776.44;4880709;29;20067;-76
2021/09/30 06:19:13;;;;;;;2.92;1.65;;;;;;;24.29;47.13;100776.84;4880632;29;20044;-76
2021/09/30 06:21:39;;;;;;;2.33;0.80;;;;;;;24.45;46.84;100770.03;4897362;29;20476;-75
2021/09/30 06:24:07;;;;;;;2.00;0.55;;;;;;;24.27;47.00;100779.25;4897082;29;20112;-76
2021/09/30 06:26:33;;;;;;;2.42;0.60;;;;;;;24.22;47.35;100790.03;4899056;29;20032;-76
2021/09/30 06:28:59;;;;;;;1.95;0.80;;;;;;;24.33;47.46;100779.66;4884483;29;20024;-77
2021/09/30 06:31:25;;;;;;;2.30;0.70;;;;;;;24.49;46.93;100788.38;4901319;29;20491;-76
2021/09/30 06:33:52;;;;;;;4.50;0.80;;;;;;;24.34;47.22;100773.69;4901330;29;20032;-77
2021/09/30 06:36:18;;;;;;;3.75;0.98;;;;;;;24.47;46.81;100776.00;4901206;29;20032;-76
2021/09/30 06:38:43;;;;;;;2.45;0.70;;;;;;;24.51;47.04;100782.38;4901229;29;20495;-77
2021/09/30 06:41:09;;;;;;;4.25;1.48;;;;;;;24.45;46.97;100776.41;4901270;29;20021;-80
2021/09/30 06:43:35;;;;;;;2.33;0.98;;;;;;;24.54;46.78;100771.16;4901099;29;20025;-76
2021/09/30 06:46:00;;;;;;;0.85;0.47;;;;;;;24.66;46.72;100771.91;4901019;29;20040;-78
2021/09/30 06:48:27;;;;;;;3.97;1.05;;;;;;;24.67;46.52;100762.31;4900851;29;20495;-77
2021/09/30 06:50:53;;;;;;;2.55;1.10;;;;;;;24.62;46.85;100758.75;4901120;29;20024;-77
2021/09/30 06:53:19;;;;;;;1.73;0.65;;;;;;;24.71;46.42;100752.72;4900939;29;20056;-77
2021/09/30 06:55:45;;;;;;;2.92;0.77;;;;;;;24.72;46.39;100745.94;4900902;29;20523;-79
2021/09/30 06:58:11;;;;;;;3.20;1.30;;;;;;;24.61;46.61;100743.19;4890539;29;20034;-78
2021/09/30 07:00:39;;;;;;;5.07;1.30;;;;;;;24.58;46.89;100746.81;4926165;29;20040;-77
2021/09/30 07:03:04;;;;;;;2.88;1.00;;;;;;;24.58;46.91;100735.63;4928920;29;20023;-77
2021/09/30 07:05:32;;;;;;;2.30;1.00;;;;;;;24.65;46.69;100734.00;4927493;29;20384;-78
2021/09/30 07:08:01;;;;;;;3.88;1.30;;;;;;;24.65;46.90;100739.59;4927146;29;20039;-77
2021/09/30 07:10:27;;;;;;;1.60;0.93;;;;;;;24.83;46.21;100746.63;4919522;29;20030;-77
2021/09/30 07:12:52;;;;;;;1.38;1.00;;;;;;;24.61;47.29;100743.19;4933161;29;20147;-78
2021/09/30 07:15:18;;;;;;;2.85;1.17;;;;;;;24.64;47.08;100738.81;4921334;29;20119;-80
2021/09/30 07:17:43;;;;;;;2.95;0.93;;;;;;;24.78;46.65;100755.44;4932687;29;20039;-78
2021/09/30 07:20:10;;;;;;;4.68;1.42;;;;;;;24.91;46.19;100748.16;4925466;29;20511;-80
2021/09/30 07:22:36;;;;;;;4.60;1.77;;;;;;;24.82;46.65;100747.03;4897999;29;20088;-75
2021/09/30 07:25:02;;;;;;;4.32;1.05;;;;;;;24.97;45.92;100750.53;4898549;29;20040;-75
2021/09/30 07:27:28;;;;;;;3.60;1.30;;;;;;;24.94;46.47;100749.38;4893433;29;20756;-76
2021/09/30 07:29:54;;;;;;;1.75;0.90;;;;;;;25.03;45.95;100757.28;4883803;29;20029;-75
2021/09/30 07:32:19;;;;;;;5.43;1.30;;;;;;;25.06;45.94;100750.88;4883648;29;20517;-75
2021/09/30 07:34:46;;;;;;;1.50;0.85;;;;;;;25.07;46.15;100744.09;4901614;29;20509;-76
2021/09/30 07:37:12;;;;;;;4.75;1.30;;;;;;;25.14;46.11;100760.81;4902121;29;20390;-77
2021/09/30 07:39:38;;;;;;;3.17;1.08;;;;;;;24.98;46.42;100749.31;4902252;29;20027;-75
2021/09/30 07:42:04;;;;;;;0.88;0.82;;;;;;;25.12;46.08;100749.25;4903091;29;20419;-75
2021/09/30 07:44:33;;;;;;;1.50;0.70;;;;;;;25.19;46.07;100749.19;4886053;29;20031;-76
2021/09/30 07:46:58;;;;;;;1.30;0.75;;;;;;;25.24;46.11;100751.53;4902071;29;20026;-77
2021/09/30 07:49:24;;;;;;;2.67;1.23;;;;;;;25.21;45.92;100746.75;4879473;29;20040;-77
2021/09/30 07:51:50;;;;;;;4.25;1.48;;;;;;;25.08;46.16;100743.66;4901778;29;20028;-77
2021/09/30 07:54:16;;;;;;;1.33;0.82;;;;;;;25.28;45.68;100760.69;4881977;29;21102;-78
2021/09/30 07:56:42;;;;;;;5.80;1.65;;;;;;;25.33;45.83;100751.84;4896421;29;20687;-76
2021/09/30 07:59:08;;;;;;;1.95;0.98;;;;;;;25.42;45.65;100745.78;4902113;29;20103;-76
2021/09/30 08:01:34;;;;;;;2.45;1.02;;;;;;;25.53;45.55;100754.84;4895917;29;20052;-77
2021/09/30 08:04:00;;;;;;;1.40;1.20;;;;;;;25.56;45.33;100762.44;4883493;29;20036;-76
2021/09/30 08:06:26;;;;;;;2.38;1.50;;;;;;;25.55;45.48;100762.84;4869316;29;21237;-77
2021/09/30 08:08:52;;;;;;;2.38;1.13;;;;;;;25.57;45.76;100760.41;4883776;29;20115;-77
2021/09/30 08:11:17;;;;;;;1.92;1.10;;;;;;;25.60;45.49;100749.19;4886098;29;20116;-78
2021/09/30 08:13:43;;;;;;;3.30;1.52;;;;;;;25.66;45.35;100755.13;4908460;29;20107;-77
2021/09/30 08:16:09;;;;;;;3.67;1.00;;;;;;;25.42;46.08;100754.16;4918059;29;20036;-77
2021/09/30 08:18:34;;;;;;;2.25;0.95;;;;;;;25.41;46.22;100752.59;4917986;29;20028;-77
2021/09/30 08:21:00;;;;;;;1.70;1.00;;;;;;;25.52;45.84;100750.47;4918096;29;20024;-77
2021/09/30 08:23:26;;;;;;;0.98;0.70;;;;;;;26.10;44.30;100754.25;4918036;29;20039;-77
2021/09/30 08:25:52;;;;;;;2.90;0.98;;;;;;;25.61;45.45;100756.34;4917871;29;20487;-77
2021/09/30 08:28:20;;;;;;;1.63;1.08;;;;;;;25.63;45.67;100745.56;4917246;29;20125;-78
2021/09/30 08:30:47;;;;;;;6.72;1.77;;;;;;;25.44;45.73;100741.34;4917876;29;20028;-78
2021/09/30 08:33:13;;;;;;;3.17;0.90;;;;;;;25.41;45.99;100753.38;4900722;29;20554;-77
2021/09/30 08:35:39;;;;;;;2.88;1.23;;;;;;;25.52;45.46;100744.06;4900749;29;20028;-78
2021/09/30 08:38:06;;;;;;;2.55;0.88;;;;;;;25.59;45.36;100732.81;4917653;29;20032;-78
2021/09/30 08:40:33;;;;;;;3.22;1.20;;;;;;;25.11;46.64;100751.25;4900459;29;20035;-78
2021/09/30 08:42:58;;;;;;;8.93;1.70;;;;;;;25.56;45.60;100747.66;4917622;29;20020;-78
2021/09/30 08:45:24;;;;;;;2.67;0.98;;;;;;;25.51;45.43;100748.09;4917639;29;20024;-78
2021/09/30 08:48:01;;;;;;;4.03;1.20;;;;;;;25.29;45.99;100753.88;4906789;29;20145;-79
2021/09/30 08:50:29;;;;;;;4.40;1.23;;;;;;;25.28;45.57;100743.09;4901111;29;20392;-78
2021/09/30 08:52:55;;;;;;;2.17;1.38;;;;;;;25.65;44.90;100745.94;4883013;29;20096;-77
2021/09/30 08:55:21;;;;;;;3.72;1.40;;;;;;;25.81;44.28;100750.19;4909887;29;20039;-78
2021/09/30 08:57:48;;;;;;;1.67;0.70;;;;;;;25.96;44.20;100746.03;4901991;29;20052;-78
2021/09/30 09:00:16;;;;;;;4.28;1.10;;;;;;;25.84;44.46;100750.13;4901819;29;20156;-78
2021/09/30 09:02:47;;;;;;;3.63;1.00;;;;;;;25.69;45.12;100751.47;4901381;29;20079;-79
2021/09/30 09:05:14;;;;;;;3.50;1.08;;;;;;;25.82;44.47;100755.38;4903928;29;20028;-78
2021/09/30 09:07:54;;;;;;;4.60;1.40;;;;;;;25.52;45.22;100758.06;4917105;29;20028;-79
2021/09/30 09:10:22;;;;;;;3.78;1.50;;;;;;;25.31;45.21;100759.06;4917259;29;20036;-77
2021/09/30 09:13:06;;;;;;;2.35;1.15;;;;;;;25.17;45.28;100765.59;4917217;29;20035;-78
2021/09/30 09:15:38;;;;;;;1.35;0.90;;;;;;;25.20;45.73;100769.53;4912159;29;20035;-78
2021/09/30 09:18:32;;;;;;;4.07;0.90;;;;;;;25.40;44.72;100768.56;4886208;29;20024;-78
2021/09/30 09:21:00;;;;;;;5.20;2.10;;;;;;;25.54;44.53;100767.63;4898087;29;20040;-78
2021/09/30 09:23:27;;;;;;;5.05;1.48;;;;;;;25.72;44.04;100759.88;4902657;29;20031;-78
2021/09/30 09:26:13;;;;;;;4.15;1.75;;;;;;;25.77;44.15;100755.84;4901991;29;20032;-78
2021/09/30 09:29:00;;;;;;;5.13;1.30;;;;;;;25.74;44.18;100751.06;4901960;29;20024;-78
2021/09/30 09:31:34;;;;;;;3.78;1.10;;;;;;;25.84;44.07;100752.16;4901050;29;20017;-78
2021/09/30 09:34:23;;;;;;;2.15;0.95;;;;;;;25.96;44.30;100748.81;4885827;29;20033;-78
2021/09/30 09:36:51;;;;;;;4.65;1.45;;;;;;;26.07;44.13;100751.47;4904371;29;20032;-77
2021/09/30 09:39:36;;;;;;;4.65;1.52;;;;;;;26.03;44.67;100745.16;4916937;29;20084;-78
2021/09/30 09:42:08;;;;;;;4.13;1.45;;;;;;;26.34;44.04;100745.94;4916300;29;20028;-78
2021/09/30 09:44:58;;;;;;;2.40;1.35;;;;;;;26.17;44.50;100736.56;4902056;29;20460;-78
2021/09/30 09:47:45;;;;;;;2.13;1.05;;;;;;;26.09;44.63;100738.66;4883813;29;20059;-78
2021/09/30 09:50:16;;;;;;;2.30;0.98;;;;;;;26.07;43.81;100740.28;4901112;29;20055;-78
2021/09/30 09:53:00;;;;;;;5.45;1.60;;;;;;;26.00;43.50;100743.97;4901300;29;20884;-78
2021/09/30 09:55:31;;;;;;;10.50;1.48;;;;;;;25.85;42.93;100745.38;4900703;29;20039;-78
2021/09/30 09:58:02;;;;;;;3.92;1.50;;;;;;;25.60;43.17;100748.38;4902464;29;20038;-77
2021/09/30 10:00:29;;;;;;;4.63;1.10;;;;;;;24.95;44.01;100744.56;4908752;29;20083;-78
2021/09/30 10:02:54;;;;;;;3.42;1.13;;;;;;;25.72;42.69;100750.69;4901829;29;20499;-77
2021/09/30 10:05:21;;;;;;;4.30;1.23;;;;;;;26.17;41.86;100750.56;4900945;29;20047;-78
2021/09/30 10:07:47;;;;;;;6.03;1.80;;;;;;;26.00;42.09;100727.19;4895623;29;20028;-78
2021/09/30 10:10:15;;;;;;;9.80;1.38;;;;;;;25.46;42.71;100738.13;4901182;29;20475;-78
2021/09/30 10:12:41;;;;;;;3.03;1.00;;;;;;;25.65;42.29;100734.75;4900959;29;20115;-77
2021/09/30 10:15:07;;;;;;;5.97;1.20;;;;;;;25.98;41.70;100730.38;4900956;29;20039;-78
2021/09/30 10:17:33;;;;;;;6.55;1.00;;;;;;;25.98;41.28;100735.97;4884033;29;20546;-78
2021/09/30 10:19:59;;;;;;;4.90;1.70;;;;;;;25.55;41.92;100738.47;4900569;29;20038;-77
2021/09/30 10:22:25;;;;;;;3.90;1.45;;;;;;;25.64;41.33;100733.16;4883111;29;21050;-77
2021/09/30 10:24:53;;;;;;;4.47;1.70;;;;;;;25.17;42.43;100734.84;4901896;29;20163;-78
2021/09/30 10:27:20;;;;;;;4.57;1.30;;;;;;;25.54;41.55;100719.25;4888680;29;20044;-76
2021/09/30 10:29:47;;;;;;;6.53;1.35;;;;;;;25.71;40.88;100726.69;4882729;29;20527;-77
2021/09/30 10:32:16;;;;;;;3.60;1.60;;;;;;;25.18;41.80;100734.41;4899092;29;20036;-77
2021/09/30 10:34:45;;;;;;;5.95;1.70;;;;;;;25.73;41.14;100729.91;4897341;29;20111;-76
2021/09/30 10:37:22;;;;;;;7.00;2.65;;;;;;;25.77;40.92;100725.06;4899046;29;20029;-82
2021/09/30 10:40:19;;;;;;;4.10;1.48;;;;;;;25.69;41.12;100729.09;4886452;29;20747;-77
2021/09/30 10:42:53;;;;;;;5.38;1.65;;;;;;;25.57;41.09;100724.03;4906042;29;20032;-78
2021/09/30 10:45:20;;;;;;;7.97;1.23;;;;;;;25.32;41.94;100727.09;4898996;29;20135;-78
2021/09/30 10:47:45;;;;;;;2.60;0.70;;;;;;;25.59;40.91;100718.81;4899291;29;20036;-78
2021/09/30 10:50:11;;;;;;;8.27;1.55;;;;;;;25.58;41.21;100723.63;4883009;29;20046;-77
2021/09/30 10:52:55;;;;;;;3.92;1.15;;;;;;;25.45;41.10;100725.34;4883305;29;20126;-77
2021/09/30 10:55:23;;;;;;;6.05;1.48;;;;;;;25.21;41.64;100737.59;4900257;29;20527;-77
2021/09/30 10:57:55;;;;;;;13.10;3.03;;;;;;;25.30;41.40;100747.06;4903873;29;20467;-78
2021/09/30 11:00:20;;;;;;;13.45;3.75;;;;;;;25.30;41.34;100735.09;4913366;29;20039;-78
2021/09/30 11:03:01;;;;;;;8.18;1.95;;;;;;;24.84;41.89;100737.03;4911620;29;20028;-78
2021/09/30 11:05:38;;;;;;;16.08;2.58;;;;;;;25.11;41.02;100733.69;4915024;29;20546;-78
2021/09/30 11:08:25;;;;;;;7.65;1.60;;;;;;;24.96;41.15;100737.75;4914992;29;20040;-77
2021/09/30 11:13:34;;;;;;;9.00;2.15;;;;;;;24.95;41.29;100736.19;4916916;29;20036;-77
2021/09/30 11:16:14;;;;;;;6.28;1.60;;;;;;;24.70;41.89;100736.34;4917807;29;20040;-78
2021/09/30 11:18:56;;;;;;;;;;;;;;;25.06;41.32;100736.91;4918536;29;20036;-77
2021/09/30 11:21:30;;;;;;;12.65;2.40;;;;;;;25.12;40.99;100735.25;4886669;29;19923;-78
2021/09/30 11:24:21;;;;;;;8.55;2.20;;;;;;;25.18;40.95;100737.22;4885176;29;20067;-78
2021/09/30 11:26:51;;;;;;;9.93;1.95;;;;;;;25.09;41.31;100727.69;4909354;29;20039;-78
2021/09/30 11:29:22;;;;;;;8.45;2.35;;;;;;;24.61;42.04;100729.22;4900899;29;20051;-77
2021/09/30 11:32:09;;;;;;;8.20;2.65;;;;;;;24.99;41.18;100725.75;4905388;29;20068;-78
2021/09/30 11:34:41;;;;;;;14.63;3.78;;;;;;;25.21;40.69;100726.41;4906169;29;20115;-78
2021/09/30 11:37:18;;;;;;;15.07;2.92;;;;;;;24.99;41.25;100728.53;4919025;29;20024;-78
2021/09/30 11:39:49;;;;;;;11.25;2.55;;;;;;;24.86;41.26;100723.47;4907910;29;20036;-78
2021/09/30 11:42:16;;;;;;;10.10;3.65;;;;;;;25.01;41.20;100706.56;4917344;29;20104;-78
2021/09/30 11:44:58;;;;;;;12.30;2.53;;;;;;;25.22;40.83;100700.81;4898330;29;20035;-77
2021/09/30 11:47:24;;;;;;;17.77;3.85;;;;;;;25.51;40.30;100703.31;4900103;29;20111;-77
2021/09/30 11:49:50;;;;;;;11.60;2.83;;;;;;;25.54;40.14;100705.28;4899985;29;20056;-78
2021/09/30 11:52:16;;;;;;;8.52;2.45;;;;;;;25.54;40.17;100700.47;4899949;29;20453;-78
2021/09/30 11:54:41;;;;;;;11.80;3.65;;;;;;;25.61;40.19;100710.81;4899787;29;20051;-78
2021/09/30 11:57:26;;;;;;;10.93;2.92;;;;;;;25.53;40.12;100712.09;4903227;29;20479;-78
2021/09/30 12:00:06;;;;;;;12.52;2.10;;;;;;;25.35;40.76;100701.88;4884452;29;20032;-78
2021/09/30 12:02:31;;;;;;;11.48;3.30;;;;;;;25.38;40.48;100703.84;4875418;29;20451;-78
2021/09/30 12:04:57;;;;;;;14.20;3.50;;;;;;;25.50;40.58;100705.34;4901513;29;20036;-78
2021/09/30 12:07:24;;;;;;;9.77;3.03;;;;;;;25.45;40.84;100697.38;4903178;29;20044;-78
2021/09/30 12:10:00;;;;;;;14.57;3.97;;;;;;;25.20;40.36;100696.84;4902880;29;20028;-78
2021/09/30 12:12:31;;;;;;;13.57;3.63;;;;;;;24.78;40.90;100702.34;4901879;29;20099;-78
2021/09/30 12:14:57;;;;;;;20.75;4.13;;;;;;;25.36;39.88;100700.69;4902948;29;20032;-78
2021/09/30 12:17:29;;;;;;;14.68;3.95;;;;;;;25.14;40.17;100690.91;4866145;29;20099;-78
2021/09/30 12:19:55;;;;;;;16.98;4.60;;;;;;;25.57;39.40;100696.88;4902957;29;20032;-77
2021/09/30 12:22:24;;;;;;;13.95;3.92;;;;;;;25.24;40.07;100686.41;4902062;29;20655;-77
2021/09/30 12:24:55;;;;;;;11.43;3.33;;;;;;;24.98;40.88;100691.41;4901157;29;20028;-78
2021/09/30 12:27:23;;;;;;;12.85;3.42;;;;;;;25.63;39.31;100686.03;4886099;29;20805;-78
2021/09/30 12:29:52;;;;;;;12.32;4.13;;;;;;;25.53;39.83;100687.69;4902228;29;20063;-78
2021/09/30 12:32:22;;;;;;;15.88;4.07;;;;;;;25.90;39.00;100684.09;4901491;29;20020;-78
2021/09/30 12:35:05;;;;;;;16.33;4.75;;;;;;;25.94;38.93;100684.88;4902010;29;20032;-78
2021/09/30 12:37:40;;;;;;;15.18;4.05;;;;;;;25.84;39.10;100676.59;4902653;29;20044;-78
2021/09/30 12:40:06;;;;;;;13.40;4.07;;;;;;;25.64;39.84;100688.41;4886975;29;20025;-78
2021/09/30 12:42:33;;;;;;;13.48;4.15;;;;;;;26.30;38.62;100695.59;4906539;29;20086;-77
2021/09/30 12:44:59;;;;;;;18.63;3.70;;;;;;;26.41;38.42;100695.44;4917833;29;20103;-77
2021/09/30 12:47:42;;;;;;;14.13;4.07;;;;;;;25.99;39.03;100695.56;4917795;29;20055;-79
2021/09/30 12:50:18;;;;;;;16.20;3.50;;;;;;;26.13;38.63;100688.22;4917822;29;20028;-79
2021/09/30 12:53:00;;;;;;;21.25;4.85;;;;;;;26.12;38.58;100692.22;4917829;29;20035;-77
2021/09/30 12:55:27;;;;;;;14.45;3.67;;;;;;;26.20;38.66;100690.91;4917636;29;20433;-77
2021/09/30 12:57:53;;;;;;;19.35;4.35;;;;;;;25.84;39.25;100685.78;4917582;29;20429;-78
2021/09/30 13:00:21;;;;;;;14.80;3.38;;;;;;;25.93;39.00;100683.28;4917419;29;20132;-78
2021/09/30 13:02:48;;;;;;;18.10;3.72;;;;;;;25.52;39.74;100686.13;4917774;29;20032;-78
2021/09/30 13:05:15;;;;;;;17.17;4.60;;;;;;;25.83;38.74;100677.78;4917511;29;20024;-77
2021/09/30 13:07:53;;;;;;;13.57;3.83;;;;;;;26.04;38.52;100687.94;4917510;29;20035;-78
2021/09/30 13:10:26;;;;;;;28.33;6.03;;;;;;;26.03;38.29;100689.16;4917376;29;20111;-78
2021/09/30 13:13:03;;;;;;;11.60;3.10;;;;;;;25.97;38.08;100684.00;4900446;29;20028;-77
2021/09/30 13:15:39;;;;;;;15.80;3.67;;;;;;;26.21;37.78;100681.28;4917290;29;20119;-79
2021/09/30 13:18:06;;;;;;;16.45;3.72;;;;;;;25.91;38.64;100677.28;4900218;29;20025;-77
2021/09/30 13:20:32;;;;;;;15.20;5.13;;;;;;;26.06;38.18;100660.31;4917081;29;20028;-76
2021/09/30 13:22:58;;;;;;;15.85;3.20;;;;;;;26.16;37.80;100662.19;4900102;29;20521;-78
2021/09/30 13:25:24;;;;;;;15.38;3.65;;;;;;;26.23;37.78;100668.47;4905034;29;20123;-77
2021/09/30 13:27:51;;;;;;;13.40;3.40;;;;;;;26.41;37.69;100659.03;4907483;29;20046;-77
2021/09/30 13:30:25;;;;;;;22.35;4.63;;;;;;;26.45;37.32;100657.78;4909836;29;20024;-78
2021/09/30 13:32:52;;;;;;;19.73;4.13;;;;;;;26.51;37.65;100666.47;4924650;29;20482;-76
2021/09/30 13:35:23;;;;;;;15.88;4.63;;;;;;;26.27;38.00;100646.00;4926850;29;20036;-76
2021/09/30 13:37:49;;;;;;;15.52;3.05;;;;;;;26.47;37.50;100658.13;4925623;29;20015;-77
2021/09/30 13:40:15;;;;;;;10.85;2.90;;;;;;;26.03;38.25;100649.97;4910100;29;20432;-77
2021/09/30 13:42:40;;;;;;;14.70;3.85;;;;;;;26.44;37.69;100655.38;4927632;29;20483;-78
2021/09/30 13:45:09;;;;;;;16.23;3.67;;;;;;;26.02;38.50;100648.38;4892036;29;20045;-79
2021/09/30 13:47:36;;;;;;;25.35;4.32;;;;;;;26.24;38.14;100650.44;4887016;29;20036;-78
2021/09/30 13:50:07;;;;;;;18.95;5.35;;;;;;;26.21;38.35;100642.88;4884587;29;20088;-79
2021/09/30 13:52:32;;;;;;;16.55;4.75;;;;;;;26.06;38.89;100647.09;4884177;29;20044;-78
2021/09/30 13:54:58;;;;;;;17.83;4.10;;;;;;;25.95;38.92;100646.47;4904428;29;20024;-78
2021/09/30 13:57:24;;;;;;;13.48;3.22;;;;;;;26.26;38.36;100644.41;4925997;29;20356;-78
2021/09/30 13:59:49;;;;;;;12.27;4.05;;;;;;;25.98;39.12;100640.00;4925988;29;20633;-77
2021/09/30 14:02:15;;;;;;;13.55;3.67;;;;;;;26.02;39.15;100640.78;4924534;29;20040;-78
2021/09/30 14:04:40;;;;;;;13.65;4.07;;;;;;;26.06;39.13;100640.69;4926393;29;20399;-78
2021/09/30 14:07:08;;;;;;;18.00;4.45;;;;;;;26.25;38.42;100637.25;4921491;29;20075;-77
2021/09/30 14:09:36;;;;;;;17.17;5.30;;;;;;;25.89;39.35;100629.34;4920985;29;20115;-78
2021/09/30 14:12:03;;;;;;;29.20;6.47;;;;;;;25.84;39.59;100629.78;4929144;29;20062;-78
2021/09/30 14:14:29;;;;;;;14.23;3.80;;;;;;;26.08;39.22;100615.91;4933859;29;20094;-78
2021/09/30 14:16:55;;;;;;;15.93;3.83;;;;;;;26.41;38.55;100622.63;4933839;29;20046;-77
2021/09/30 14:19:25;;;;;;;12.73;3.75;;;;;;;26.57;38.33;100624.78;4934032;29;20040;-77
2021/09/30 14:21:52;;;;;;;12.90;4.20;;;;;;;26.28;38.31;100625.19;4933952;29;20486;-77
2021/09/30 14:24:18;;;;;;;20.45;5.03;;;;;;;26.73;37.24;100624.88;4916859;29;20066;-78
2021/09/30 14:26:44;;;;;;;31.23;6.47;;;;;;;26.49;37.91;100610.09;4933785;29;20055;-77
2021/09/30 14:29:10;;;;;;;16.40;4.10;;;;;;;26.82;37.23;100609.09;4935249;29;20503;-77